Time;durP1;ratioP1;P1;durP2;ratioP2;P2;SDS_P1;SDS_P2;PMS_P1;PMS_P2;Temp;Humidity;BMP_temperature;BMP_pressure;BME280_temperature;BME280_humidity;BME280_pressure;Samples;Min_cycle;Max_cycle;Signal;HPM_P1;HPM_P2
2022/01/25 00:08:41;;;;;;;55.90;24.20;;;;;;;1.08;81.84;101255.87;208361;1324;140769;-79
2022/01/25 00:24:49;;;;;;;54.60;25.70;;;;;;;1.18;81.85;101240.05;207402;1318;140341;-80
2022/01/25 00:30:20;;;;;;;44.50;22.30;;;;;;;1.17;82.04;101235.91;207489;1321;141358;-71
2022/01/25 00:35:20;;;;;;;;;;;;;;;1.22;81.76;101230.55;207294;1321;141247;-79
2022/01/25 00:40:25;;;;;;;54.50;27.70;;;;;;;1.21;81.90;101229.81;208465;1319;126466;-78
2022/01/25 00:45:29;;;;;;;43.40;24.80;;;;;;;1.21;82.28;101223.48;207525;1320;139649;-77
2022/01/25 00:51:03;;;;;;;52.50;24.60;;;;;;;1.18;82.06;101213.64;208132;1319;141286;-71
2022/01/25 00:56:10;;;;;;;51.60;23.30;;;;;;;1.19;82.01;101204.77;206871;1320;140148;-75
2022/01/25 01:01:13;;;;;;;55.20;24.80;;;;;;;1.16;82.32;101204.16;206742;1321;140849;-73
2022/01/25 01:06:16;;;;;;;36.80;18.80;;;;;;;1.09;82.29;101201.66;207168;1324;140981;-77
2022/01/25 01:11:27;;;;;;;49.70;27.30;;;;;;;1.10;82.14;101198.23;207205;1320;141278;-70
2022/01/25 01:43:05;;;;;;;29.00;14.20;;;;;;;1.25;82.66;101174.02;207248;1319;139366;-79
2022/01/25 01:48:11;;;;;;;42.10;19.80;;;;;;;1.24;82.91;101165.36;207831;1319;140449;-80
2022/01/25 01:53:18;;;;;;;31.90;17.90;;;;;;;1.29;82.55;101154.75;208165;1318;140952;-73
2022/01/25 01:58:21;;;;;;;41.50;21.80;;;;;;;1.28;82.67;101152.27;207313;1321;140070;-75
2022/01/25 02:03:38;;;;;;;43.00;21.00;;;;;;;1.32;82.53;101146.29;208193;1320;139768;-80
2022/01/25 02:08:42;;;;;;;36.60;19.50;;;;;;;1.40;83.15;101140.98;207953;1316;140430;-74
2022/01/25 02:13:46;;;;;;;46.30;23.50;;;;;;;1.46;82.83;101140.47;208361;1319;140494;-77
2022/01/25 02:24:11;;;;;;;33.20;17.40;;;;;;;1.45;82.73;101143.02;208339;1321;140259;-81
2022/01/25 02:29:17;;;;;;;35.60;18.90;;;;;;;1.51;82.64;101136.86;207264;1319;143130;-76
2022/01/25 02:34:22;;;;;;;36.60;18.00;;;;;;;1.52;82.93;101140.71;208805;1320;141605;-75
2022/01/25 02:39:27;;;;;;;31.50;14.30;;;;;;;1.49;82.77;101140.91;208621;1320;141991;-78
2022/01/25 02:44:34;;;;;;;46.50;16.50;;;;;;;1.45;82.87;101130.52;207738;1321;140857;-85
2022/01/25 02:49:38;;;;;;;40.10;17.50;;;;;;;1.46;82.67;101122.58;207915;1321;141235;-78
2022/01/25 02:54:41;;;;;;;30.80;15.50;;;;;;;1.45;82.61;101123.19;207713;1319;140914;-76
2022/01/25 02:59:44;;;;;;;36.70;19.60;;;;;;;1.39;82.99;101106.90;206642;1321;139962;-80
2022/01/25 03:04:49;;;;;;;33.40;16.30;;;;;;;1.35;82.99;101104.11;206655;1319;141946;-67
2022/01/25 03:09:57;;;;;;;33.90;18.50;;;;;;;1.38;83.05;101106.52;207358;1320;139861;-75
2022/01/25 03:26:09;;;;;;;36.50;16.00;;;;;;;1.36;83.33;101097.56;207446;1321;126739;-74
2022/01/25 03:31:12;;;;;;;34.70;20.10;;;;;;;1.39;83.15;101100.98;207168;1318;141545;-76
2022/01/25 03:36:18;;;;;;;45.70;22.90;;;;;;;1.38;83.42;101100.23;207394;1321;141957;-73
2022/01/25 03:41:23;;;;;;;43.80;18.70;;;;;;;1.37;83.21;101102.23;207350;1317;141435;-76
2022/01/25 03:51:37;;;;;;;33.90;16.80;;;;;;;1.39;83.54;101095.39;207674;1319;140082;-77
2022/01/25 03:56:41;;;;;;;29.70;14.90;;;;;;;1.34;83.12;101086.71;207578;1318;139269;-78
2022/01/25 04:01:46;;;;;;;35.90;16.90;;;;;;;1.37;83.41;101081.57;206539;1320;139723;-76
2022/01/25 04:06:52;;;;;;;29.60;14.00;;;;;;;1.41;83.52;101082.95;206782;1321;139986;-77
2022/01/25 04:12:03;;;;;;;26.90;14.10;;;;;;;1.35;83.48;101077.87;208779;1320;139385;-77
2022/01/25 04:17:10;;;;;;;32.20;15.70;;;;;;;1.37;83.69;101075.95;208819;1317;141690;-78
2022/01/25 04:27:15;;;;;;;24.60;14.00;;;;;;;1.46;83.60;101062.14;208636;1319;150240;-80
2022/01/25 04:32:19;;;;;;;28.90;14.20;;;;;;;1.47;83.66;101062.91;208835;1316;140717;-80
2022/01/25 04:53:49;;;;;;;25.10;11.00;;;;;;;1.54;83.29;101035.95;207896;1321;141804;-80
2022/01/25 04:59:04;;;;;;;18.80;12.30;;;;;;;1.52;83.50;101022.54;207113;1318;142182;-78
2022/01/25 05:04:13;;;;;;;16.50;9.90;;;;;;;1.52;83.56;101009.34;207058;1321;142971;-76
2022/01/25 05:09:19;;;;;;;17.70;11.20;;;;;;;1.48;83.91;101008.83;207119;1321;141224;-74
2022/01/25 05:14:30;;;;;;;15.90;9.50;;;;;;;1.50;83.67;101013.25;206270;1321;922944;-76
2022/01/25 05:24:40;;;;;;;17.50;10.00;;;;;;;1.46;83.86;101007.32;207481;1320;140815;-76
2022/01/25 05:29:45;;;;;;;13.90;8.60;;;;;;;1.44;83.57;100999.50;206926;1319;140987;-77
2022/01/25 05:34:50;;;;;;;16.10;8.90;;;;;;;1.44;83.60;101008.41;207365;1316;141192;-77
2022/01/25 05:39:54;;;;;;;15.30;9.10;;;;;;;1.47;83.71;101021.64;207300;1319;164351;-73
2022/01/25 05:45:12;;;;;;;14.90;8.80;;;;;;;1.46;84.06;101018.36;207289;1319;140481;-80
2022/01/25 05:50:15;;;;;;;13.70;8.60;;;;;;;1.48;83.61;101010.97;207761;1319;142270;-71
2022/01/25 05:55:18;;;;;;;9.50;7.00;;;;;;;1.51;83.46;101015.05;206839;1318;141964;-73
2022/01/25 06:00:21;;;;;;;13.90;9.30;;;;;;;1.46;83.48;101011.19;208170;1321;140506;-76
2022/01/25 06:05:25;;;;;;;12.90;9.10;;;;;;;1.43;83.88;101012.01;208340;1318;139937;-75
2022/01/25 06:10:28;;;;;;;13.30;7.50;;;;;;;1.43;83.59;101009.90;206721;1319;142126;-75
2022/01/25 06:15:32;;;;;;;8.80;6.80;;;;;;;1.45;83.45;101010.72;206874;1321;141984;-76
2022/01/25 06:20:35;;;;;;;11.10;8.30;;;;;;;1.42;83.45;101011.34;207986;1321;141380;-79
2022/01/25 06:25:38;;;;;;;11.80;7.30;;;;;;;1.36;83.28;101002.79;208215;1318;140478;-69
2022/01/25 06:30:53;;;;;;;11.00;7.50;;;;;;;1.33;83.69;100995.05;208500;1319;224923;-76
2022/01/25 06:35:56;;;;;;;10.80;8.50;;;;;;;1.36;83.65;101001.56;208927;1318;140613;-79
2022/01/25 06:41:03;;;;;;;10.50;6.80;;;;;;;1.37;83.86;101003.48;207732;1322;141203;-78
2022/01/25 06:46:05;;;;;;;10.60;8.20;;;;;;;1.34;83.35;101000.19;208756;1316;141225;-74
2022/01/25 06:51:08;;;;;;;9.20;6.10;;;;;;;1.36;83.02;101002.62;207806;1319;140751;-73
2022/01/25 06:56:14;;;;;;;8.00;5.70;;;;;;;1.39;83.35;100996.80;208560;1320;142303;-78
2022/01/25 07:01:17;;;;;;;11.10;6.60;;;;;;;1.39;83.47;100999.92;208018;1318;140320;-77
2022/01/25 07:06:25;;;;;;;12.40;8.10;;;;;;;1.43;83.80;101006.02;207355;1321;141101;-76
2022/01/25 07:11:34;;;;;;;;;;;;;;;1.48;83.26;101010.08;207334;1318;140694;-76
2022/01/25 07:16:37;;;;;;;16.80;8.40;;;;;;;1.50;83.26;101003.14;207945;1321;126277;-77
2022/01/25 07:21:39;;;;;;;19.60;11.90;;;;;;;1.46;83.51;100997.73;207971;1320;140011;-76
2022/01/25 07:26:42;;;;;;;20.00;10.60;;;;;;;1.44;83.92;101000.20;207077;1321;140085;-75
2022/01/25 07:31:45;;;;;;;14.20;9.80;;;;;;;1.46;83.44;101001.18;207242;1321;141390;-75
2022/01/25 07:36:49;;;;;;;12.10;6.40;;;;;;;1.44;83.69;100998.75;206299;1317;140782;-74
2022/01/25 07:41:57;;;;;;;15.10;9.90;;;;;;;1.39;83.80;100998.16;206657;1321;141096;-74
2022/01/25 07:47:10;;;;;;;21.50;11.00;;;;;;;1.42;84.11;100996.52;207882;1321;140610;-74
2022/01/25 07:52:13;;;;;;;17.90;10.80;;;;;;;1.52;83.74;100996.75;206919;1321;141602;-73
2022/01/25 07:57:15;;;;;;;19.10;11.80;;;;;;;1.57;84.03;100999.91;207692;1319;141217;-72
2022/01/25 08:02:19;;;;;;;18.20;12.20;;;;;;;1.56;83.86;101000.55;207337;1318;140939;-70
2022/01/25 08:08:06;;;;;;;;;;;;;;;;;;;;;
2022/01/25 08:13:19;;;;;;;22.60;13.30;;;;;;;1.63;84.05;100993.79;207848;1318;142441;-73
2022/01/25 08:18:37;;;;;;;21.50;11.90;;;;;;;1.61;83.71;100993.73;207654;1321;139851;-75
2022/01/25 08:23:59;;;;;;;19.90;12.00;;;;;;;1.64;83.72;100991.42;207955;1321;143281;-75
2022/01/25 08:29:47;;;;;;;22.70;12.90;;;;;;;1.72;83.68;100980.30;207415;1321;140841;-74
2022/01/25 08:35:11;;;;;;;17.60;9.80;;;;;;;1.70;83.65;100978.92;206697;1324;139842;-71
2022/01/25 08:40:34;;;;;;;22.80;12.40;;;;;;;1.72;83.82;100967.84;207680;1324;141024;-75
2022/01/25 08:46:03;;;;;;;17.50;13.60;;;;;;;1.82;83.45;100963.79;207657;1322;140453;-74
2022/01/25 08:51:18;;;;;;;19.80;13.20;;;;;;;1.91;83.87;100953.70;207861;1321;141212;-73
2022/01/25 08:56:40;;;;;;;18.80;10.10;;;;;;;1.96;83.76;100955.47;204215;1329;140075;-69
2022/01/25 09:02:05;;;;;;;19.00;13.00;;;;;;;1.96;83.38;100951.14;204515;1329;141223;-70
2022/01/25 09:07:09;;;;;;;23.30;13.70;;;;;;;1.97;83.65;100950.88;205070;1330;140378;-75
2022/01/25 09:12:15;;;;;;;23.60;12.40;;;;;;;2.01;83.67;100944.54;204431;1326;140814;-74
2022/01/25 09:17:19;;;;;;;18.30;11.00;;;;;;;2.06;83.68;100943.15;205704;1327;140614;-70
2022/01/25 09:22:21;;;;;;;21.40;13.80;;;;;;;2.13;83.56;100944.01;205007;1324;140011;-76
2022/01/25 09:27:24;;;;;;;17.50;10.20;;;;;;;2.12;83.59;100930.48;206193;1321;140459;-77
2022/01/25 09:32:26;;;;;;;27.20;12.90;;;;;;;2.12;83.49;100931.48;207172;1320;139701;-79
2022/01/25 09:37:28;;;;;;;17.20;10.80;;;;;;;2.18;83.57;100923.52;208312;1319;140468;-78
2022/01/25 09:42:31;;;;;;;24.50;13.20;;;;;;;2.23;83.46;100922.86;207223;1319;139930;-72
2022/01/25 09:47:41;;;;;;;20.40;11.20;;;;;;;2.21;83.45;100913.38;207248;1321;140802;-72
2022/01/25 09:52:45;;;;;;;18.70;9.60;;;;;;;2.26;83.67;100900.31;207414;1321;141544;-78
2022/01/25 09:57:48;;;;;;;20.40;12.10;;;;;;;2.30;83.65;100901.65;207143;1320;142285;-75
2022/01/25 10:08:20;;;;;;;23.30;11.90;;;;;;;2.55;83.60;100909.10;207063;1321;140103;-76
2022/01/25 10:13:27;;;;;;;17.40;10.60;;;;;;;2.68;83.62;100908.18;206959;1321;141072;-76
2022/01/25 10:18:47;;;;;;;16.80;9.20;;;;;;;2.78;83.70;100914.35;207311;1319;140743;-77
2022/01/25 10:24:14;;;;;;;20.40;11.80;;;;;;;2.80;83.40;100917.62;206969;1321;159942;-74
2022/01/25 10:29:31;;;;;;;16.50;12.00;;;;;;;2.83;83.22;100924.02;207703;1321;142746;-76
2022/01/25 10:34:39;;;;;;;24.90;12.30;;;;;;;2.76;82.92;100922.47;207901;1320;141334;-77
2022/01/25 10:39:52;;;;;;;24.60;12.90;;;;;;;2.72;82.89;100926.38;207909;1321;141527;-78
2022/01/25 10:45:09;;;;;;;21.90;13.80;;;;;;;2.70;83.18;100917.48;207038;1321;163409;-75
2022/01/25 10:50:23;;;;;;;9.70;6.40;;;;;;;2.69;83.37;100913.27;208322;1321;140478;-78
2022/01/25 10:55:37;;;;;;;19.80;9.50;;;;;;;2.69;82.96;100906.61;208593;1321;139903;-75
2022/01/25 11:00:44;;;;;;;19.00;10.60;;;;;;;2.77;83.00;100895.62;207672;1320;141205;-73
2022/01/25 11:05:47;;;;;;;13.20;7.40;;;;;;;2.81;83.20;100886.45;208491;1321;141246;-72
2022/01/25 11:11:06;;;;;;;;;;;;;;;;;;;;;
2022/01/25 11:16:12;;;;;;;22.50;13.50;;;;;;;2.91;82.85;100879.77;208405;1318;141490;-79
2022/01/25 11:21:17;;;;;;;23.40;12.80;;;;;;;2.95;83.15;100882.73;206954;1319;141056;-77
2022/01/25 11:26:30;;;;;;;20.70;12.70;;;;;;;2.98;83.26;100886.83;207174;1319;139852;-74
2022/01/25 11:31:40;;;;;;;22.50;11.90;;;;;;;3.01;83.31;100884.60;207508;1321;141849;-79
2022/01/25 11:36:46;;;;;;;18.30;11.30;;;;;;;3.02;83.34;100880.63;206856;1321;143384;-75
2022/01/25 11:42:04;;;;;;;20.30;12.40;;;;;;;3.03;83.57;100880.20;207365;1318;140808;-80
2022/01/25 11:47:13;;;;;;;21.80;13.50;;;;;;;3.03;83.34;100873.31;206838;1319;141167;-78
2022/01/25 11:52:26;;;;;;;17.50;11.00;;;;;;;3.01;83.25;100874.23;207300;1320;140595;-78
2022/01/25 11:57:47;;;;;;;16.30;10.50;;;;;;;3.03;83.43;100871.45;207658;1321;140923;-77
2022/01/25 12:02:52;;;;;;;21.50;12.90;;;;;;;3.02;83.39;100871.17;207410;1321;142022;-79
2022/01/25 12:08:27;;;;;;;19.70;12.30;;;;;;;2.97;83.15;100873.91;206668;1320;150307;-76
2022/01/25 12:13:31;;;;;;;22.60;12.00;;;;;;;2.88;83.30;100871.55;208061;1319;140428;-74
2022/01/25 12:19:18;;;;;;;19.40;13.20;;;;;;;2.86;83.25;100871.94;207131;1321;141027;-78
2022/01/25 12:24:38;;;;;;;18.10;11.60;;;;;;;2.85;83.65;100873.73;207731;1321;140825;-70
2022/01/25 12:29:57;;;;;;;14.60;9.30;;;;;;;2.86;83.30;100864.70;206521;1321;141896;-74
2022/01/25 12:35:13;;;;;;;17.50;10.60;;;;;;;2.87;83.32;100867.40;206953;1316;140973;-74
2022/01/25 12:40:38;;;;;;;17.30;8.80;;;;;;;2.91;83.96;100860.17;207789;1320;141207;-71
2022/01/25 12:45:49;;;;;;;16.70;10.00;;;;;;;2.92;83.49;100862.33;207978;1321;140553;-73
2022/01/25 12:50:54;;;;;;;17.70;11.70;;;;;;;2.96;83.59;100857.91;208068;1322;140917;-74
2022/01/25 12:56:05;;;;;;;18.50;11.70;;;;;;;3.00;83.48;100857.11;207805;1322;140857;-77
2022/01/25 13:01:11;;;;;;;17.80;11.20;;;;;;;3.00;83.59;100858.23;208200;1322;140270;-76
2022/01/25 13:06:58;;;;;;;13.40;8.50;;;;;;;3.01;83.48;100855.59;207481;1318;141243;-72
2022/01/25 13:12:32;;;;;;;21.00;13.70;;;;;;;2.99;83.42;100855.61;208430;1318;140976;-72
2022/01/25 13:17:37;;;;;;;19.10;10.50;;;;;;;2.94;83.73;100853.13;207454;1321;140943;-72
2022/01/25 13:22:42;;;;;;;16.80;10.60;;;;;;;2.93;83.67;100846.10;207752;1318;141760;-69
2022/01/25 13:27:53;;;;;;;15.50;11.00;;;;;;;2.92;83.47;100839.09;207856;1321;140513;-71
2022/01/25 13:32:55;;;;;;;15.70;10.80;;;;;;;2.92;83.84;100837.23;207559;1320;140467;-73
2022/01/25 13:38:13;;;;;;;15.20;10.00;;;;;;;2.91;83.78;100841.55;207751;1319;141474;-73
2022/01/25 13:49:25;;;;;;;14.60;9.00;;;;;;;2.87;83.71;100829.38;207295;1321;141909;-76
2022/01/25 13:54:29;;;;;;;11.20;8.40;;;;;;;2.83;83.86;100825.02;207382;1319;139990;-81
2022/01/25 13:59:33;;;;;;;14.00;9.30;;;;;;;2.82;83.93;100823.46;206768;1321;139448;-75
2022/01/25 14:04:39;;;;;;;13.80;9.60;;;;;;;2.81;83.68;100828.49;207312;1319;140020;-75
2022/01/25 14:09:47;;;;;;;13.30;9.40;;;;;;;2.74;83.83;100829.29;206671;1320;141075;-78
2022/01/25 14:25:47;;;;;;;11.80;8.70;;;;;;;2.65;84.05;100828.63;206957;1320;141372;-69
2022/01/25 14:30:54;;;;;;;13.00;8.20;;;;;;;2.64;84.22;100834.54;207004;1319;141139;-75
2022/01/25 14:48:42;;;;;;;19.20;10.30;;;;;;;2.30;84.75;100835.85;208463;1358;684249;-75
2022/01/25 14:53:52;;;;;;;14.70;10.80;;;;;;;2.21;84.51;100839.23;208776;1323;140943;-79
2022/01/25 15:04:01;;;;;;;16.60;12.30;;;;;;;2.24;84.74;100837.31;209570;1316;140144;-77
2022/01/25 15:09:05;;;;;;;16.60;11.00;;;;;;;2.25;84.94;100835.88;208680;1319;139006;-76
2022/01/25 15:14:10;;;;;;;16.60;10.70;;;;;;;2.29;84.87;100842.59;208387;1320;139917;-77
2022/01/25 15:19:21;;;;;;;17.30;11.70;;;;;;;2.36;84.87;100848.92;207859;1317;141340;-74
2022/01/25 15:24:29;;;;;;;25.00;12.70;;;;;;;2.39;84.85;100851.60;208721;1317;139776;-71
2022/01/25 15:29:33;;;;;;;16.20;10.20;;;;;;;2.39;84.74;100852.16;207945;1316;139862;-71
2022/01/25 15:34:53;;;;;;;20.70;11.60;;;;;;;2.39;84.61;100854.13;207584;1316;140292;-71
2022/01/25 15:40:00;;;;;;;13.80;10.20;;;;;;;2.43;84.82;100851.92;208389;1317;139401;-68
2022/01/25 15:45:21;;;;;;;18.80;11.00;;;;;;;2.38;84.61;100849.85;207536;1316;141201;-72
2022/01/25 15:50:26;;;;;;;17.90;10.90;;;;;;;2.34;85.00;100851.58;207773;1316;141108;-84
2022/01/25 15:55:30;;;;;;;19.90;11.80;;;;;;;2.34;84.91;100852.32;207267;1316;139972;-79
2022/01/25 16:00:39;;;;;;;19.70;11.80;;;;;;;2.34;84.97;100859.27;207714;1316;141896;-75
2022/01/25 16:05:52;;;;;;;16.30;10.10;;;;;;;2.34;84.97;100857.00;208245;1316;140870;-76
2022/01/25 16:11:13;;;;;;;22.30;13.10;;;;;;;2.33;85.01;100851.63;207542;1316;139462;-76
2022/01/25 16:16:20;;;;;;;18.60;12.60;;;;;;;2.37;84.92;100852.18;207843;1316;141209;-73
2022/01/25 16:21:24;;;;;;;16.20;8.60;;;;;;;2.34;85.07;100849.98;207197;1316;141405;-73
2022/01/25 16:26:27;;;;;;;22.10;10.90;;;;;;;2.31;85.16;100849.63;207610;1316;140507;-71
2022/01/25 16:31:42;;;;;;;22.70;14.30;;;;;;;2.34;85.07;100848.08;207704;1316;141555;-72
2022/01/25 16:36:45;;;;;;;17.90;11.30;;;;;;;2.39;85.30;100846.41;207424;1319;140175;-73
2022/01/25 16:41:48;;;;;;;27.20;17.10;;;;;;;2.38;85.11;100850.69;207769;1316;140756;-71
2022/01/25 16:46:51;;;;;;;18.60;13.00;;;;;;;2.42;85.41;100849.07;208519;1319;139634;-74
2022/01/25 16:51:53;;;;;;;25.30;13.00;;;;;;;2.42;85.24;100848.30;209427;1316;139786;-69
2022/01/25 16:56:56;;;;;;;19.90;12.80;;;;;;;2.38;84.97;100846.09;208212;1316;140373;-73
2022/01/25 17:02:01;;;;;;;26.30;15.40;;;;;;;2.36;85.20;100847.38;207765;1319;141267;-72
2022/01/25 17:07:04;;;;;;;26.40;14.10;;;;;;;2.39;85.41;100852.69;206980;1316;141631;-68
2022/01/25 17:12:15;;;;;;;20.70;10.20;;;;;;;2.44;84.94;100852.35;207508;1320;140590;-71
2022/01/25 17:17:38;;;;;;;22.00;12.20;;;;;;;2.41;85.09;100852.84;209111;1317;139102;-74
2022/01/25 17:23:04;;;;;;;19.20;12.50;;;;;;;2.43;85.38;100843.83;208395;1316;139548;-69
2022/01/25 17:28:07;;;;;;;18.20;9.90;;;;;;;2.44;85.36;100847.67;208024;1316;139807;-72
2022/01/25 17:33:15;;;;;;;26.10;14.90;;;;;;;2.42;85.13;100845.73;207957;1316;139597;-71
2022/01/25 17:38:23;;;;;;;21.10;14.30;;;;;;;2.45;85.18;100846.70;208745;1316;139945;-74
2022/01/25 17:43:26;;;;;;;19.90;13.30;;;;;;;2.46;85.26;100849.46;208412;1316;140633;-78
2022/01/25 17:48:33;;;;;;;20.60;12.40;;;;;;;2.47;85.40;100847.88;207238;1316;163020;-65
2022/01/25 17:53:36;;;;;;;16.90;11.70;;;;;;;2.50;85.36;100844.94;208376;1316;139937;-68
2022/01/25 17:58:40;;;;;;;21.30;12.50;;;;;;;2.51;85.56;100849.33;207593;1316;139480;-70
2022/01/25 18:03:47;;;;;;;17.80;11.40;;;;;;;2.49;85.56;100844.08;207640;1316;139024;-71
2022/01/25 18:08:56;;;;;;;18.20;10.40;;;;;;;2.46;85.41;100845.09;207238;1316;139492;-70
2022/01/25 18:14:01;;;;;;;19.60;12.30;;;;;;;2.48;85.14;100845.25;207319;1316;140242;-69
2022/01/25 18:19:08;;;;;;;17.00;11.80;;;;;;;2.49;85.45;100845.73;207262;1316;139929;-70
2022/01/25 18:24:36;;;;;;;18.40;12.00;;;;;;;2.45;85.89;100845.98;207659;1314;141074;-70
2022/01/25 18:29:43;;;;;;;27.00;16.70;;;;;;;2.48;85.74;100845.46;207541;1316;139522;-72
2022/01/25 18:34:51;;;;;;;25.20;14.90;;;;;;;2.53;86.14;100849.84;207862;1317;139795;-73
2022/01/25 18:39:55;;;;;;;28.50;15.90;;;;;;;2.53;85.69;100850.86;207805;1316;139150;-69
2022/01/25 18:44:58;;;;;;;21.20;12.70;;;;;;;2.53;85.74;100854.11;207589;1316;139191;-75
2022/01/25 18:50:02;;;;;;;29.00;13.70;;;;;;;2.52;85.71;100851.14;207894;1317;140891;-69
2022/01/25 18:55:08;;;;;;;27.20;13.60;;;;;;;2.55;85.89;100847.15;208029;1313;141955;-76
2022/01/25 19:00:13;;;;;;;20.40;13.50;;;;;;;2.58;85.95;100848.84;209456;1316;141144;-76
2022/01/25 19:05:30;;;;;;;23.50;14.50;;;;;;;2.60;85.62;100848.04;208031;1316;141462;-77
2022/01/25 19:10:40;;;;;;;18.30;10.70;;;;;;;2.61;85.75;100843.63;208937;1316;139627;-75
2022/01/25 19:16:01;;;;;;;17.00;12.70;;;;;;;2.60;85.69;100841.92;208742;1317;140656;-74
2022/01/25 19:21:08;;;;;;;21.50;13.30;;;;;;;2.59;85.38;100836.45;209028;1316;141261;-77
2022/01/25 19:26:11;;;;;;;22.40;13.10;;;;;;;2.62;85.49;100836.50;208474;1316;140518;-76
2022/01/25 19:31:17;;;;;;;17.40;11.30;;;;;;;2.65;85.64;100837.91;209671;1316;139897;-76
2022/01/25 19:36:24;;;;;;;26.20;14.30;;;;;;;2.65;85.57;100834.61;208139;1317;140175;-73
2022/01/25 19:41:32;;;;;;;20.40;14.50;;;;;;;2.66;85.96;100837.09;209167;1316;140645;-72
2022/01/25 19:46:47;;;;;;;19.40;14.40;;;;;;;2.70;85.60;100837.58;207631;1317;140470;-73
2022/01/25 19:51:51;;;;;;;20.10;12.50;;;;;;;2.71;85.76;100841.69;207944;1317;152199;-73
2022/01/25 19:56:58;;;;;;;15.50;11.50;;;;;;;2.67;85.63;100842.07;207296;1316;140203;-74
2022/01/25 20:02:02;;;;;;;20.50;13.20;;;;;;;2.65;85.78;100835.94;207548;1316;141001;-73
2022/01/25 20:07:07;;;;;;;19.40;13.30;;;;;;;2.68;85.80;100836.36;207668;1316;140331;-75
2022/01/25 20:12:12;;;;;;;23.30;13.50;;;;;;;2.68;85.54;100832.46;208179;1316;142107;-76
2022/01/25 20:17:41;;;;;;;22.70;11.40;;;;;;;2.70;85.78;100837.41;208385;1313;141763;-74
2022/01/25 20:33:49;;;;;;;21.40;13.80;;;;;;;2.68;85.74;100832.04;207946;1316;139563;-72
2022/01/25 20:38:59;;;;;;;24.10;15.20;;;;;;;2.69;86.14;100828.85;208218;1313;139193;-78
2022/01/25 20:44:06;;;;;;;26.70;16.80;;;;;;;2.70;85.78;100834.61;207731;1312;205755;-71
2022/01/25 20:49:44;;;;;;;;;;;;;;;;;;;;;
2022/01/25 20:54:54;;;;;;;24.10;14.70;;;;;;;2.66;85.69;100839.69;208960;1314;140340;-72
2022/01/25 20:59:58;;;;;;;24.10;12.70;;;;;;;2.66;85.71;100843.05;208679;1313;140333;-73
2022/01/25 21:10:25;;;;;;;25.10;14.80;;;;;;;2.70;85.67;100847.05;208734;1313;141881;-77
2022/01/25 21:15:28;;;;;;;25.70;16.00;;;;;;;2.71;85.81;100845.02;209019;1313;161393;-73
2022/01/25 21:20:32;;;;;;;24.50;17.30;;;;;;;2.76;86.14;100845.55;209376;1313;142060;-73
2022/01/25 21:25:45;;;;;;;28.40;17.30;;;;;;;2.79;85.86;100841.05;209548;1313;140822;-69
2022/01/25 21:30:49;;;;;;;24.00;15.30;;;;;;;2.77;85.42;100837.70;209499;1313;141426;-72
2022/01/25 21:35:59;;;;;;;27.20;15.70;;;;;;;2.78;85.55;100834.46;209494;1314;139229;-73
2022/01/25 21:41:16;;;;;;;21.70;13.70;;;;;;;2.79;85.63;100831.02;209299;1313;140135;-73
2022/01/25 21:46:24;;;;;;;26.90;16.40;;;;;;;2.77;85.67;100825.58;208285;1313;139485;-71
2022/01/25 21:51:27;;;;;;;21.00;13.00;;;;;;;2.78;85.64;100817.94;208933;1312;141991;-72
2022/01/25 21:56:30;;;;;;;21.50;12.80;;;;;;;2.79;85.52;100816.43;208707;1313;139907;-71
2022/01/25 22:01:40;;;;;;;21.30;12.70;;;;;;;2.78;85.16;100810.11;207873;1313;139423;-72
2022/01/25 22:07:29;;;;;;;19.40;12.10;;;;;;;2.71;85.68;100806.02;208303;1313;140056;-72
2022/01/25 22:12:18;;;;;;;21.30;12.20;;;;;;;2.65;85.43;100801.88;207739;1314;158319;-71
2022/01/25 22:17:23;;;;;;;18.60;10.00;;;;;;;2.60;85.64;100797.66;207975;1313;142228;-72
2022/01/25 22:22:27;;;;;;;18.10;10.60;;;;;;;2.62;85.88;100800.50;208635;1314;142242;-74
2022/01/25 22:27:33;;;;;;;14.20;8.70;;;;;;;2.62;85.58;100800.09;207664;1313;140588;-69
2022/01/25 22:32:37;;;;;;;14.10;8.00;;;;;;;2.59;85.77;100800.32;207958;1313;140760;-71
2022/01/25 22:37:44;;;;;;;15.40;8.20;;;;;;;2.62;85.90;100793.30;208140;1313;141223;-68
2022/01/25 22:42:50;;;;;;;;;;;;;;;2.68;85.96;100791.92;208378;1313;141434;-70
2022/01/25 22:48:09;;;;;;;17.60;10.10;;;;;;;2.70;86.08;100794.93;208515;1313;126621;-69
2022/01/25 22:53:14;;;;;;;16.80;9.20;;;;;;;2.67;85.73;100786.78;209275;1314;139378;-71
2022/01/25 22:58:17;;;;;;;16.80;8.00;;;;;;;2.67;85.49;100787.52;208188;1313;424050;-75
2022/01/25 23:03:45;;;;;;;15.70;9.30;;;;;;;2.71;85.90;100786.92;208818;1313;139967;-68
2022/01/25 23:09:27;;;;;;;;;;;;;;;;;;;;;
2022/01/25 23:14:52;;;;;;;19.40;12.00;;;;;;;2.69;85.55;100789.45;208393;1314;138581;-71
2022/01/25 23:20:27;;;;;;;;;;;;;;;;;;;;;
2022/01/25 23:25:32;;;;;;;23.50;12.60;;;;;;;2.73;85.47;100786.05;209800;1313;140015;-75
2022/01/25 23:30:51;;;;;;;17.50;11.00;;;;;;;2.71;85.32;100785.39;210064;1313;141540;-74
2022/01/25 23:36:02;;;;;;;15.30;9.70;;;;;;;2.66;85.06;100789.34;209613;1314;140607;-77
2022/01/25 23:41:22;;;;;;;18.30;10.50;;;;;;;2.68;85.14;100786.06;210126;1314;139966;-69
2022/01/25 23:46:33;;;;;;;17.20;10.80;;;;;;;2.71;85.55;100785.02;209040;1313;140198;-72
